sensor_id;sensor_type;location;lat;lon;timestamp;temperature;humidity
74420;DHT22;62855;50.718;-2.460;2023-08-07T00:00:06;55.58;79.00
74420;DHT22;62855;50.718;-2.460;2023-08-07T00:03:06;55.40;79.00
74420;DHT22;62855;50.718;-2.460;2023-08-07T00:06:06;55.40;79.00
74420;DHT22;62855;50.718;-2.460;2023-08-07T00:09:06;55.22;79.00
74420;DHT22;62855;50.718;-2.460;2023-08-07T00:12:06;55.22;79.00
74420;DHT22;62855;50.718;-2.460;2023-08-07T00:15:07;55.22;80.00
74420;DHT22;62855;50.718;-2.460;2023-08-07T00:18:06;55.04;80.00
74420;DHT22;62855;50.718;-2.460;2023-08-07T00:21:05;55.04;80.00
74420;DHT22;62855;50.718;-2.460;2023-08-07T00:24:06;54.86;80.00
74420;DHT22;62855;50.718;-2.460;2023-08-07T00:27:07;54.86;80.00
74420;DHT22;62855;50.718;-2.460;2023-08-07T00:30:07;54.86;80.00
74420;DHT22;62855;50.718;-2.460;2023-08-07T00:33:06;54.68;80.00
74420;DHT22;62855;50.718;-2.460;2023-08-07T00:36:07;54.68;80.00
74420;DHT22;62855;50.718;-2.460;2023-08-07T00:39:07;54.50;81.00
74420;DHT22;62855;50.718;-2.460;2023-08-07T00:42:06;54.50;81.00
74420;DHT22;62855;50.718;-2.460;2023-08-07T00:45:06;54.50;81.00
74420;DHT22;62855;50.718;-2.460;2023-08-07T00:48:06;54.68;81.00
74420;DHT22;62855;50.718;-2.460;2023-08-07T00:51:07;54.68;81.00
74420;DHT22;62855;50.718;-2.460;2023-08-07T00:54:07;54.68;81.00
74420;DHT22;62855;50.718;-2.460;2023-08-07T00:57:10;54.86;81.00
74420;DHT22;62855;50.718;-2.460;2023-08-07T01:00:07;54.86;82.00
74420;DHT22;62855;50.718;-2.460;2023-08-07T01:03:06;54.86;82.00
74420;DHT22;62855;50.718;-2.460;2023-08-07T01:06:06;54.86;82.00
74420;DHT22;62855;50.718;-2.460;2023-08-07T01:09:06;54.86;82.00
74420;DHT22;62855;50.718;-2.460;2023-08-07T01:12:12;54.68;81.00
74420;DHT22;62855;50.718;-2.460;2023-08-07T01:15:12;54.68;81.00
74420;DHT22;62855;50.718;-2.460;2023-08-07T01:18:07;54.68;81.00
74420;DHT22;62855;50.718;-2.460;2023-08-07T01:21:06;54.50;81.00
74420;DHT22;62855;50.718;-2.460;2023-08-07T01:24:06;54.50;81.00
74420;DHT22;62855;50.718;-2.460;2023-08-07T01:27:16;54.50;82.00
74420;DHT22;62855;50.718;-2.460;2023-08-07T01:30:14;54.50;82.00
74420;DHT22;62855;50.718;-2.460;2023-08-07T01:33:10;54.50;82.00
74420;DHT22;62855;50.718;-2.460;2023-08-07T01:36:07;54.50;82.00
74420;DHT22;62855;50.718;-2.460;2023-08-07T01:39:06;54.50;82.00
74420;DHT22;62855;50.718;-2.460;2023-08-07T01:42:06;54.32;82.00
74420;DHT22;62855;50.718;-2.460;2023-08-07T01:45:06;54.32;82.00
74420;DHT22;62855;50.718;-2.460;2023-08-07T01:48:06;54.32;82.00
74420;DHT22;62855;50.718;-2.460;2023-08-07T01:51:06;54.14;82.00
74420;DHT22;62855;50.718;-2.460;2023-08-07T01:54:06;54.14;82.00
74420;DHT22;62855;50.718;-2.460;2023-08-07T01:57:06;54.14;82.00
74420;DHT22;62855;50.718;-2.460;2023-08-07T02:00:07;54.14;82.00
74420;DHT22;62855;50.718;-2.460;2023-08-07T02:03:06;54.14;82.00
74420;DHT22;62855;50.718;-2.460;2023-08-07T02:06:06;54.14;82.00
74420;DHT22;62855;50.718;-2.460;2023-08-07T02:09:06;54.14;83.00
74420;DHT22;62855;50.718;-2.460;2023-08-07T02:12:06;53.96;83.00
74420;DHT22;62855;50.718;-2.460;2023-08-07T02:15:07;53.96;83.00
74420;DHT22;62855;50.718;-2.460;2023-08-07T02:18:05;53.78;83.00
74420;DHT22;62855;50.718;-2.460;2023-08-07T02:21:06;53.78;83.00
74420;DHT22;62855;50.718;-2.460;2023-08-07T02:24:06;53.60;83.00
74420;DHT22;62855;50.718;-2.460;2023-08-07T02:27:06;53.60;83.00
74420;DHT22;62855;50.718;-2.460;2023-08-07T02:30:07;53.60;83.00
74420;DHT22;62855;50.718;-2.460;2023-08-07T02:33:06;53.60;83.00
74420;DHT22;62855;50.718;-2.460;2023-08-07T02:36:06;53.60;83.00
74420;DHT22;62855;50.718;-2.460;2023-08-07T02:39:06;53.60;83.00
74420;DHT22;62855;50.718;-2.460;2023-08-07T02:42:06;53.60;84.00
74420;DHT22;62855;50.718;-2.460;2023-08-07T02:45:06;53.60;84.00
74420;DHT22;62855;50.718;-2.460;2023-08-07T02:48:06;53.60;84.00
74420;DHT22;62855;50.718;-2.460;2023-08-07T02:51:06;53.60;84.00
74420;DHT22;62855;50.718;-2.460;2023-08-07T02:54:06;53.60;84.00
74420;DHT22;62855;50.718;-2.460;2023-08-07T02:57:06;53.42;84.00
74420;DHT22;62855;50.718;-2.460;2023-08-07T03:00:07;53.24;88.00
74420;DHT22;62855;50.718;-2.460;2023-08-07T03:03:06;53.24;88.00
74420;DHT22;62855;50.718;-2.460;2023-08-07T03:06:06;53.06;88.00
74420;DHT22;62855;50.718;-2.460;2023-08-07T03:09:06;52.88;88.00
74420;DHT22;62855;50.718;-2.460;2023-08-07T03:12:06;52.88;88.00
74420;DHT22;62855;50.718;-2.460;2023-08-07T03:15:07;52.70;88.00
74420;DHT22;62855;50.718;-2.460;2023-08-07T03:18:06;52.70;88.00
74420;DHT22;62855;50.718;-2.460;2023-08-07T03:21:06;52.70;88.00
74420;DHT22;62855;50.718;-2.460;2023-08-07T03:24:06;52.70;88.00
74420;DHT22;62855;50.718;-2.460;2023-08-07T03:27:06;52.70;89.00
74420;DHT22;62855;50.718;-2.460;2023-08-07T03:30:07;52.52;89.00
74420;DHT22;62855;50.718;-2.460;2023-08-07T03:33:06;52.52;89.00
74420;DHT22;62855;50.718;-2.460;2023-08-07T03:36:06;52.52;89.00
74420;DHT22;62855;50.718;-2.460;2023-08-07T03:39:06;52.52;89.00
74420;DHT22;62855;50.718;-2.460;2023-08-07T03:42:06;52.70;90.00
74420;DHT22;62855;50.718;-2.460;2023-08-07T03:45:07;52.70;90.00
74420;DHT22;62855;50.718;-2.460;2023-08-07T03:48:06;52.88;90.00
74420;DHT22;62855;50.718;-2.460;2023-08-07T03:51:07;52.88;90.00
74420;DHT22;62855;50.718;-2.460;2023-08-07T03:54:06;52.88;90.00
74420;DHT22;62855;50.718;-2.460;2023-08-07T03:57:06;52.88;90.00
74420;DHT22;62855;50.718;-2.460;2023-08-07T04:00:08;52.88;90.00
74420;DHT22;62855;50.718;-2.460;2023-08-07T04:03:06;52.88;90.00
74420;DHT22;62855;50.718;-2.460;2023-08-07T04:06:06;52.88;91.00
74420;DHT22;62855;50.718;-2.460;2023-08-07T04:09:06;52.88;91.00
74420;DHT22;62855;50.718;-2.460;2023-08-07T04:12:07;52.88;91.00
74420;DHT22;62855;50.718;-2.460;2023-08-07T04:15:07;52.88;91.00
74420;DHT22;62855;50.718;-2.460;2023-08-07T04:18:06;52.88;91.00
74420;DHT22;62855;50.718;-2.460;2023-08-07T04:21:06;52.88;91.00
74420;DHT22;62855;50.718;-2.460;2023-08-07T04:24:06;52.88;91.00
74420;DHT22;62855;50.718;-2.460;2023-08-07T04:27:06;52.88;91.00
74420;DHT22;62855;50.718;-2.460;2023-08-07T04:30:07;52.88;91.00
74420;DHT22;62855;50.718;-2.460;2023-08-07T04:33:06;52.88;91.00
74420;DHT22;62855;50.718;-2.460;2023-08-07T04:36:06;52.88;91.00
74420;DHT22;62855;50.718;-2.460;2023-08-07T04:39:06;52.70;91.00
74420;DHT22;62855;50.718;-2.460;2023-08-07T04:42:06;52.88;91.00
74420;DHT22;62855;50.718;-2.460;2023-08-07T04:45:07;52.88;91.00
74420;DHT22;62855;50.718;-2.460;2023-08-07T04:48:07;52.88;91.00
74420;DHT22;62855;50.718;-2.460;2023-08-07T04:51:06;52.88;91.00
74420;DHT22;62855;50.718;-2.460;2023-08-07T04:54:06;52.88;91.00
74420;DHT22;62855;50.718;-2.460;2023-08-07T04:57:06;52.88;91.00
74420;DHT22;62855;50.718;-2.460;2023-08-07T05:00:07;52.88;91.00
74420;DHT22;62855;50.718;-2.460;2023-08-07T05:03:06;52.70;91.00
74420;DHT22;62855;50.718;-2.460;2023-08-07T05:06:06;51.98;91.00
74420;DHT22;62855;50.718;-2.460;2023-08-07T05:09:06;51.98;91.00
74420;DHT22;62855;50.718;-2.460;2023-08-07T05:12:07;51.98;91.00
74420;DHT22;62855;50.718;-2.460;2023-08-07T05:15:07;51.98;91.00
74420;DHT22;62855;50.718;-2.460;2023-08-07T05:18:06;51.98;91.00
74420;DHT22;62855;50.718;-2.460;2023-08-07T05:21:06;51.98;91.00
74420;DHT22;62855;50.718;-2.460;2023-08-07T05:24:06;51.98;91.00
74420;DHT22;62855;50.718;-2.460;2023-08-07T05:27:08;51.98;91.00
74420;DHT22;62855;50.718;-2.460;2023-08-07T05:30:07;52.16;92.00
74420;DHT22;62855;50.718;-2.460;2023-08-07T05:33:06;52.16;92.00
74420;DHT22;62855;50.718;-2.460;2023-08-07T05:36:06;52.16;92.00
74420;DHT22;62855;50.718;-2.460;2023-08-07T05:39:06;52.16;92.00
74420;DHT22;62855;50.718;-2.460;2023-08-07T05:42:07;52.16;92.00
74420;DHT22;62855;50.718;-2.460;2023-08-07T05:45:07;52.34;92.00
74420;DHT22;62855;50.718;-2.460;2023-08-07T05:48:06;52.34;92.00
74420;DHT22;62855;50.718;-2.460;2023-08-07T05:51:06;52.52;92.00
74420;DHT22;62855;50.718;-2.460;2023-08-07T05:54:06;52.70;92.00
74420;DHT22;62855;50.718;-2.460;2023-08-07T05:57:06;52.70;92.00
74420;DHT22;62855;50.718;-2.460;2023-08-07T06:00:07;52.88;93.00
74420;DHT22;62855;50.718;-2.460;2023-08-07T06:03:06;53.06;93.00
74420;DHT22;62855;50.718;-2.460;2023-08-07T06:06:06;53.24;93.00
74420;DHT22;62855;50.718;-2.460;2023-08-07T06:09:06;53.42;93.00
74420;DHT22;62855;50.718;-2.460;2023-08-07T06:12:07;53.60;90.00
74420;DHT22;62855;50.718;-2.460;2023-08-07T06:15:07;53.60;90.00
74420;DHT22;62855;50.718;-2.460;2023-08-07T06:18:06;53.78;91.00
74420;DHT22;62855;50.718;-2.460;2023-08-07T06:21:06;54.14;91.00
74420;DHT22;62855;50.718;-2.460;2023-08-07T06:24:06;54.32;91.00
74420;DHT22;62855;50.718;-2.460;2023-08-07T06:27:06;54.50;91.00
74420;DHT22;62855;50.718;-2.460;2023-08-07T06:30:06;54.68;91.00
74420;DHT22;62855;50.718;-2.460;2023-08-07T06:33:06;55.04;91.00
74420;DHT22;62855;50.718;-2.460;2023-08-07T06:36:07;55.40;91.00
74420;DHT22;62855;50.718;-2.460;2023-08-07T06:39:06;55.58;91.00
74420;DHT22;62855;50.718;-2.460;2023-08-07T06:42:06;55.94;91.00
74420;DHT22;62855;50.718;-2.460;2023-08-07T06:45:06;56.30;91.00
74420;DHT22;62855;50.718;-2.460;2023-08-07T06:48:06;56.48;91.00
74420;DHT22;62855;50.718;-2.460;2023-08-07T06:51:06;56.84;91.00
74420;DHT22;62855;50.718;-2.460;2023-08-07T06:54:06;57.20;91.00
74420;DHT22;62855;50.718;-2.460;2023-08-07T06:57:07;57.38;91.00
74420;DHT22;62855;50.718;-2.460;2023-08-07T07:00:07;57.74;90.00
74420;DHT22;62855;50.718;-2.460;2023-08-07T07:03:06;57.92;90.00
74420;DHT22;62855;50.718;-2.460;2023-08-07T07:06:06;58.10;89.00
74420;DHT22;62855;50.718;-2.460;2023-08-07T07:09:06;58.28;88.00
74420;DHT22;62855;50.718;-2.460;2023-08-07T07:12:07;58.28;86.00
74420;DHT22;62855;50.718;-2.460;2023-08-07T07:15:06;58.64;85.00
74420;DHT22;62855;50.718;-2.460;2023-08-07T07:18:06;58.82;84.00
74420;DHT22;62855;50.718;-2.460;2023-08-07T07:21:06;59.18;83.00
74420;DHT22;62855;50.718;-2.460;2023-08-07T07:24:06;59.54;83.00
74420;DHT22;62855;50.718;-2.460;2023-08-07T07:27:06;59.90;82.00
74420;DHT22;62855;50.718;-2.460;2023-08-07T07:30:07;60.26;82.00
74420;DHT22;62855;50.718;-2.460;2023-08-07T07:33:06;60.62;81.00
74420;DHT22;62855;50.718;-2.460;2023-08-07T07:36:06;60.98;80.00
74420;DHT22;62855;50.718;-2.460;2023-08-07T07:39:06;61.16;79.00
74420;DHT22;62855;50.718;-2.460;2023-08-07T07:42:07;61.34;77.00
74420;DHT22;62855;50.718;-2.460;2023-08-07T07:45:06;61.70;76.00
74420;DHT22;62855;50.718;-2.460;2023-08-07T07:48:06;62.06;75.00
74420;DHT22;62855;50.718;-2.460;2023-08-07T07:51:06;62.24;74.00
74420;DHT22;62855;50.718;-2.460;2023-08-07T07:54:06;62.42;73.00
74420;DHT22;62855;50.718;-2.460;2023-08-07T07:57:06;62.60;70.00
74420;DHT22;62855;50.718;-2.460;2023-08-07T08:00:08;62.78;69.00
74420;DHT22;62855;50.718;-2.460;2023-08-07T08:03:06;62.96;68.00
74420;DHT22;62855;50.718;-2.460;2023-08-07T08:06:06;63.32;68.00
74420;DHT22;62855;50.718;-2.460;2023-08-07T08:09:06;63.86;69.00
74420;DHT22;62855;50.718;-2.460;2023-08-07T08:12:07;64.22;68.00
74420;DHT22;62855;50.718;-2.460;2023-08-07T08:15:07;64.40;67.00
74420;DHT22;62855;50.718;-2.460;2023-08-07T08:18:05;64.58;66.00
74420;DHT22;62855;50.718;-2.460;2023-08-07T08:21:06;64.76;67.00
74420;DHT22;62855;50.718;-2.460;2023-08-07T08:24:06;65.30;67.00
74420;DHT22;62855;50.718;-2.460;2023-08-07T08:27:07;65.66;66.00
74420;DHT22;62855;50.718;-2.460;2023-08-07T08:30:07;65.66;64.00
74420;DHT22;62855;50.718;-2.460;2023-08-07T08:33:06;65.66;64.00
74420;DHT22;62855;50.718;-2.460;2023-08-07T08:36:06;66.02;64.00
74420;DHT22;62855;50.718;-2.460;2023-08-07T08:39:06;66.20;63.00
74420;DHT22;62855;50.718;-2.460;2023-08-07T08:42:06;66.38;62.00
74420;DHT22;62855;50.718;-2.460;2023-08-07T08:45:09;66.20;60.00
74420;DHT22;62855;50.718;-2.460;2023-08-07T08:48:07;66.02;58.00
74420;DHT22;62855;50.718;-2.460;2023-08-07T08:51:08;66.38;58.00
74420;DHT22;62855;50.718;-2.460;2023-08-07T08:54:06;67.10;58.00
74420;DHT22;62855;50.718;-2.460;2023-08-07T08:57:06;67.82;57.00
74420;DHT22;62855;50.718;-2.460;2023-08-07T09:00:08;68.18;58.00
74420;DHT22;62855;50.718;-2.460;2023-08-07T09:03:07;68.18;57.00
74420;DHT22;62855;50.718;-2.460;2023-08-07T09:06:06;68.00;57.00
74420;DHT22;62855;50.718;-2.460;2023-08-07T09:09:07;67.46;56.00
74420;DHT22;62855;50.718;-2.460;2023-08-07T09:12:08;67.28;56.00
74420;DHT22;62855;50.718;-2.460;2023-08-07T09:15:08;67.46;58.00
74420;DHT22;62855;50.718;-2.460;2023-08-07T09:18:06;67.82;57.00
74420;DHT22;62855;50.718;-2.460;2023-08-07T09:21:06;67.82;57.00
74420;DHT22;62855;50.718;-2.460;2023-08-07T09:24:06;67.64;56.00
74420;DHT22;62855;50.718;-2.460;2023-08-07T09:27:07;67.28;55.00
74420;DHT22;62855;50.718;-2.460;2023-08-07T09:30:07;67.10;56.00
74420;DHT22;62855;50.718;-2.460;2023-08-07T09:33:06;67.10;57.00
74420;DHT22;62855;50.718;-2.460;2023-08-07T09:36:06;67.10;57.00
74420;DHT22;62855;50.718;-2.460;2023-08-07T09:39:06;67.10;58.00
74420;DHT22;62855;50.718;-2.460;2023-08-07T09:42:12;67.64;60.00
74420;DHT22;62855;50.718;-2.460;2023-08-07T09:48:06;68.00;60.00
74420;DHT22;62855;50.718;-2.460;2023-08-07T09:51:06;67.64;59.00
74420;DHT22;62855;50.718;-2.460;2023-08-07T09:54:05;67.10;58.00
74420;DHT22;62855;50.718;-2.460;2023-08-07T09:57:06;66.74;59.00
74420;DHT22;62855;50.718;-2.460;2023-08-07T10:00:08;66.74;60.00
74420;DHT22;62855;50.718;-2.460;2023-08-07T10:03:06;66.74;60.00
74420;DHT22;62855;50.718;-2.460;2023-08-07T10:06:07;66.74;61.00
74420;DHT22;62855;50.718;-2.460;2023-08-07T10:09:06;66.92;62.00
74420;DHT22;62855;50.718;-2.460;2023-08-07T10:12:07;67.46;63.00
74420;DHT22;62855;50.718;-2.460;2023-08-07T10:15:07;67.82;61.00
74420;DHT22;62855;50.718;-2.460;2023-08-07T10:18:06;68.00;61.00
74420;DHT22;62855;50.718;-2.460;2023-08-07T10:21:06;67.82;60.00
74420;DHT22;62855;50.718;-2.460;2023-08-07T10:24:07;67.82;60.00
74420;DHT22;62855;50.718;-2.460;2023-08-07T10:27:06;67.82;61.00
74420;DHT22;62855;50.718;-2.460;2023-08-07T10:30:07;68.00;62.00
74420;DHT22;62855;50.718;-2.460;2023-08-07T10:33:07;68.36;62.00
74420;DHT22;62855;50.718;-2.460;2023-08-07T10:36:08;68.72;62.00
74420;DHT22;62855;50.718;-2.460;2023-08-07T10:39:06;68.90;61.00
74420;DHT22;62855;50.718;-2.460;2023-08-07T10:42:06;69.08;60.00
74420;DHT22;62855;50.718;-2.460;2023-08-07T10:45:06;68.90;60.00
74420;DHT22;62855;50.718;-2.460;2023-08-07T10:48:07;68.72;60.00
74420;DHT22;62855;50.718;-2.460;2023-08-07T10:51:07;68.90;60.00
74420;DHT22;62855;50.718;-2.460;2023-08-07T10:54:06;69.08;60.00
74420;DHT22;62855;50.718;-2.460;2023-08-07T10:57:10;69.08;57.00
74420;DHT22;62855;50.718;-2.460;2023-08-07T11:00:07;68.90;55.00
74420;DHT22;62855;50.718;-2.460;2023-08-07T11:03:08;68.90;56.00
74420;DHT22;62855;50.718;-2.460;2023-08-07T11:06:08;68.90;55.00
74420;DHT22;62855;50.718;-2.460;2023-08-07T11:09:08;68.90;55.00
74420;DHT22;62855;50.718;-2.460;2023-08-07T11:12:06;69.08;55.00
74420;DHT22;62855;50.718;-2.460;2023-08-07T11:15:07;69.26;56.00
74420;DHT22;62855;50.718;-2.460;2023-08-07T11:18:06;69.26;55.00
74420;DHT22;62855;50.718;-2.460;2023-08-07T11:21:06;69.44;56.00
74420;DHT22;62855;50.718;-2.460;2023-08-07T11:24:06;69.26;55.00
74420;DHT22;62855;50.718;-2.460;2023-08-07T11:27:07;69.08;55.00
74420;DHT22;62855;50.718;-2.460;2023-08-07T11:30:11;68.72;55.00
74420;DHT22;62855;50.718;-2.460;2023-08-07T11:33:06;68.18;55.00
74420;DHT22;62855;50.718;-2.460;2023-08-07T11:36:10;68.00;56.00
74420;DHT22;62855;50.718;-2.460;2023-08-07T11:39:06;67.82;57.00
74420;DHT22;62855;50.718;-2.460;2023-08-07T11:42:06;67.64;56.00
74420;DHT22;62855;50.718;-2.460;2023-08-07T11:45:08;67.28;57.00
74420;DHT22;62855;50.718;-2.460;2023-08-07T11:48:06;67.10;57.00
74420;DHT22;62855;50.718;-2.460;2023-08-07T11:51:07;66.92;57.00
74420;DHT22;62855;50.718;-2.460;2023-08-07T11:54:06;66.92;58.00
74420;DHT22;62855;50.718;-2.460;2023-08-07T11:57:15;66.56;58.00
74420;DHT22;62855;50.718;-2.460;2023-08-07T12:00:07;66.38;58.00
74420;DHT22;62855;50.718;-2.460;2023-08-07T12:06:08;66.20;59.00
74420;DHT22;62855;50.718;-2.460;2023-08-07T12:09:06;66.38;60.00
74420;DHT22;62855;50.718;-2.460;2023-08-07T12:12:07;66.56;60.00
74420;DHT22;62855;50.718;-2.460;2023-08-07T12:15:08;66.74;60.00
74420;DHT22;62855;50.718;-2.460;2023-08-07T12:18:07;66.92;60.00
74420;DHT22;62855;50.718;-2.460;2023-08-07T12:21:07;67.10;60.00
74420;DHT22;62855;50.718;-2.460;2023-08-07T12:24:07;67.28;60.00
74420;DHT22;62855;50.718;-2.460;2023-08-07T12:27:07;67.28;60.00
74420;DHT22;62855;50.718;-2.460;2023-08-07T12:30:07;67.64;60.00
74420;DHT22;62855;50.718;-2.460;2023-08-07T12:33:06;67.82;60.00
74420;DHT22;62855;50.718;-2.460;2023-08-07T12:36:06;68.00;60.00
74420;DHT22;62855;50.718;-2.460;2023-08-07T12:39:06;68.18;60.00
74420;DHT22;62855;50.718;-2.460;2023-08-07T12:42:06;68.18;58.00
74420;DHT22;62855;50.718;-2.460;2023-08-07T12:45:06;68.18;58.00
74420;DHT22;62855;50.718;-2.460;2023-08-07T12:48:06;68.36;58.00
74420;DHT22;62855;50.718;-2.460;2023-08-07T12:51:06;68.18;58.00
74420;DHT22;62855;50.718;-2.460;2023-08-07T12:54:05;68.18;58.00
74420;DHT22;62855;50.718;-2.460;2023-08-07T12:57:06;68.18;58.00
74420;DHT22;62855;50.718;-2.460;2023-08-07T13:00:07;68.00;59.00
74420;DHT22;62855;50.718;-2.460;2023-08-07T13:03:06;68.18;60.00
74420;DHT22;62855;50.718;-2.460;2023-08-07T13:06:06;67.82;60.00
74420;DHT22;62855;50.718;-2.460;2023-08-07T13:09:06;67.46;60.00
74420;DHT22;62855;50.718;-2.460;2023-08-07T13:12:07;67.10;60.00
74420;DHT22;62855;50.718;-2.460;2023-08-07T13:15:08;67.10;60.00
74420;DHT22;62855;50.718;-2.460;2023-08-07T13:18:06;67.10;60.00
74420;DHT22;62855;50.718;-2.460;2023-08-07T13:21:06;67.10;60.00
74420;DHT22;62855;50.718;-2.460;2023-08-07T13:24:06;67.10;61.00
74420;DHT22;62855;50.718;-2.460;2023-08-07T13:27:06;67.28;61.00
74420;DHT22;62855;50.718;-2.460;2023-08-07T13:30:07;67.64;60.00
74420;DHT22;62855;50.718;-2.460;2023-08-07T13:33:06;67.46;58.00
74420;DHT22;62855;50.718;-2.460;2023-08-07T13:36:06;67.46;59.00
74420;DHT22;62855;50.718;-2.460;2023-08-07T13:39:06;67.64;60.00
74420;DHT22;62855;50.718;-2.460;2023-08-07T13:42:07;67.28;56.00
74420;DHT22;62855;50.718;-2.460;2023-08-07T13:45:07;66.92;56.00
74420;DHT22;62855;50.718;-2.460;2023-08-07T13:48:06;66.74;57.00
74420;DHT22;62855;50.718;-2.460;2023-08-07T13:51:06;66.74;59.00
74420;DHT22;62855;50.718;-2.460;2023-08-07T13:54:06;66.92;60.00
74420;DHT22;62855;50.718;-2.460;2023-08-07T13:57:06;66.92;61.00
74420;DHT22;62855;50.718;-2.460;2023-08-07T14:00:07;66.92;61.00
74420;DHT22;62855;50.718;-2.460;2023-08-07T14:03:06;67.10;61.00
74420;DHT22;62855;50.718;-2.460;2023-08-07T14:06:06;67.28;60.00
74420;DHT22;62855;50.718;-2.460;2023-08-07T14:09:06;67.28;60.00
74420;DHT22;62855;50.718;-2.460;2023-08-07T14:12:07;67.28;60.00
74420;DHT22;62855;50.718;-2.460;2023-08-07T14:15:07;67.28;60.00
74420;DHT22;62855;50.718;-2.460;2023-08-07T14:18:06;67.28;60.00
74420;DHT22;62855;50.718;-2.460;2023-08-07T14:21:06;67.46;59.00
74420;DHT22;62855;50.718;-2.460;2023-08-07T14:24:06;67.46;60.00
74420;DHT22;62855;50.718;-2.460;2023-08-07T14:27:06;67.64;60.00
74420;DHT22;62855;50.718;-2.460;2023-08-07T14:30:07;67.46;58.00
74420;DHT22;62855;50.718;-2.460;2023-08-07T14:33:06;67.28;59.00
74420;DHT22;62855;50.718;-2.460;2023-08-07T14:36:06;67.10;60.00
74420;DHT22;62855;50.718;-2.460;2023-08-07T14:39:06;67.28;60.00
74420;DHT22;62855;50.718;-2.460;2023-08-07T14:42:06;67.28;60.00
74420;DHT22;62855;50.718;-2.460;2023-08-07T14:45:06;67.10;60.00
74420;DHT22;62855;50.718;-2.460;2023-08-07T14:48:06;66.92;60.00
74420;DHT22;62855;50.718;-2.460;2023-08-07T14:51:06;66.92;60.00
74420;DHT22;62855;50.718;-2.460;2023-08-07T14:54:06;66.92;61.00
74420;DHT22;62855;50.718;-2.460;2023-08-07T14:57:06;66.92;61.00
74420;DHT22;62855;50.718;-2.460;2023-08-07T15:00:08;66.92;61.00
74420;DHT22;62855;50.718;-2.460;2023-08-07T15:03:06;66.92;61.00
74420;DHT22;62855;50.718;-2.460;2023-08-07T15:06:06;66.92;61.00
74420;DHT22;62855;50.718;-2.460;2023-08-07T15:09:06;67.28;61.00
74420;DHT22;62855;50.718;-2.460;2023-08-07T15:12:07;67.28;61.00
74420;DHT22;62855;50.718;-2.460;2023-08-07T15:15:06;67.28;61.00
74420;DHT22;62855;50.718;-2.460;2023-08-07T15:18:05;67.28;61.00
74420;DHT22;62855;50.718;-2.460;2023-08-07T15:21:06;67.28;61.00
74420;DHT22;62855;50.718;-2.460;2023-08-07T15:24:06;67.10;61.00
74420;DHT22;62855;50.718;-2.460;2023-08-07T15:27:06;67.10;61.00
74420;DHT22;62855;50.718;-2.460;2023-08-07T15:30:07;67.10;61.00
74420;DHT22;62855;50.718;-2.460;2023-08-07T15:33:06;67.10;61.00
74420;DHT22;62855;50.718;-2.460;2023-08-07T15:36:06;67.10;60.00
74420;DHT22;62855;50.718;-2.460;2023-08-07T15:39:06;67.10;60.00
74420;DHT22;62855;50.718;-2.460;2023-08-07T15:42:07;67.28;60.00
74420;DHT22;62855;50.718;-2.460;2023-08-07T15:45:07;67.10;60.00
74420;DHT22;62855;50.718;-2.460;2023-08-07T15:48:06;67.10;60.00
74420;DHT22;62855;50.718;-2.460;2023-08-07T15:51:06;66.92;60.00
74420;DHT22;62855;50.718;-2.460;2023-08-07T15:54:06;66.92;60.00
74420;DHT22;62855;50.718;-2.460;2023-08-07T15:57:06;66.74;60.00
74420;DHT22;62855;50.718;-2.460;2023-08-07T16:00:07;66.74;60.00
74420;DHT22;62855;50.718;-2.460;2023-08-07T16:03:07;66.56;60.00
74420;DHT22;62855;50.718;-2.460;2023-08-07T16:06:06;66.56;60.00
74420;DHT22;62855;50.718;-2.460;2023-08-07T16:09:06;66.38;60.00
74420;DHT22;62855;50.718;-2.460;2023-08-07T16:12:06;66.20;61.00
74420;DHT22;62855;50.718;-2.460;2023-08-07T16:15:07;66.20;62.00
74420;DHT22;62855;50.718;-2.460;2023-08-07T16:18:06;66.20;62.00
74420;DHT22;62855;50.718;-2.460;2023-08-07T16:21:06;66.02;62.00
74420;DHT22;62855;50.718;-2.460;2023-08-07T16:24:06;65.84;61.00
74420;DHT22;62855;50.718;-2.460;2023-08-07T16:27:06;65.66;62.00
74420;DHT22;62855;50.718;-2.460;2023-08-07T16:30:06;65.48;62.00
74420;DHT22;62855;50.718;-2.460;2023-08-07T16:33:06;65.48;63.00
74420;DHT22;62855;50.718;-2.460;2023-08-07T16:36:06;65.48;63.00
74420;DHT22;62855;50.718;-2.460;2023-08-07T16:39:06;65.48;63.00
74420;DHT22;62855;50.718;-2.460;2023-08-07T16:42:07;65.48;63.00
74420;DHT22;62855;50.718;-2.460;2023-08-07T16:45:07;65.48;63.00
74420;DHT22;62855;50.718;-2.460;2023-08-07T16:48:06;65.30;63.00
74420;DHT22;62855;50.718;-2.460;2023-08-07T16:51:06;65.30;63.00
74420;DHT22;62855;50.718;-2.460;2023-08-07T16:54:06;65.30;63.00
74420;DHT22;62855;50.718;-2.460;2023-08-07T16:57:06;65.30;63.00
74420;DHT22;62855;50.718;-2.460;2023-08-07T17:00:07;65.48;63.00
74420;DHT22;62855;50.718;-2.460;2023-08-07T17:03:06;65.30;62.00
74420;DHT22;62855;50.718;-2.460;2023-08-07T17:06:06;65.12;62.00
74420;DHT22;62855;50.718;-2.460;2023-08-07T17:09:06;65.12;62.00
74420;DHT22;62855;50.718;-2.460;2023-08-07T17:12:07;64.94;63.00
74420;DHT22;62855;50.718;-2.460;2023-08-07T17:15:08;64.76;63.00
74420;DHT22;62855;50.718;-2.460;2023-08-07T17:18:06;64.76;64.00
74420;DHT22;62855;50.718;-2.460;2023-08-07T17:21:06;64.58;64.00
74420;DHT22;62855;50.718;-2.460;2023-08-07T17:24:06;64.58;64.00
74420;DHT22;62855;50.718;-2.460;2023-08-07T17:27:06;64.58;64.00
74420;DHT22;62855;50.718;-2.460;2023-08-07T17:30:07;64.40;64.00
74420;DHT22;62855;50.718;-2.460;2023-08-07T17:33:06;64.40;64.00
74420;DHT22;62855;50.718;-2.460;2023-08-07T17:36:06;64.40;65.00
74420;DHT22;62855;50.718;-2.460;2023-08-07T17:39:06;64.40;65.00
74420;DHT22;62855;50.718;-2.460;2023-08-07T17:42:07;64.22;65.00
74420;DHT22;62855;50.718;-2.460;2023-08-07T17:45:06;64.22;66.00
74420;DHT22;62855;50.718;-2.460;2023-08-07T17:48:06;63.86;66.00
74420;DHT22;62855;50.718;-2.460;2023-08-07T17:51:06;63.68;67.00
74420;DHT22;62855;50.718;-2.460;2023-08-07T17:54:06;63.68;68.00
74420;DHT22;62855;50.718;-2.460;2023-08-07T17:57:06;63.50;68.00
74420;DHT22;62855;50.718;-2.460;2023-08-07T18:00:07;63.32;69.00
74420;DHT22;62855;50.718;-2.460;2023-08-07T18:03:06;63.32;70.00
74420;DHT22;62855;50.718;-2.460;2023-08-07T18:06:06;63.14;70.00
74420;DHT22;62855;50.718;-2.460;2023-08-07T18:09:06;62.96;70.00
74420;DHT22;62855;50.718;-2.460;2023-08-07T18:12:07;62.96;70.00
74420;DHT22;62855;50.718;-2.460;2023-08-07T18:15:06;62.78;70.00
74420;DHT22;62855;50.718;-2.460;2023-08-07T18:18:06;62.78;70.00
74420;DHT22;62855;50.718;-2.460;2023-08-07T18:21:06;62.78;70.00
74420;DHT22;62855;50.718;-2.460;2023-08-07T18:24:06;62.60;70.00
74420;DHT22;62855;50.718;-2.460;2023-08-07T18:27:06;62.60;71.00
74420;DHT22;62855;50.718;-2.460;2023-08-07T18:30:07;62.60;71.00
74420;DHT22;62855;50.718;-2.460;2023-08-07T18:33:06;62.60;71.00
74420;DHT22;62855;50.718;-2.460;2023-08-07T18:36:06;62.60;71.00
74420;DHT22;62855;50.718;-2.460;2023-08-07T18:39:06;62.60;71.00
74420;DHT22;62855;50.718;-2.460;2023-08-07T18:42:06;62.42;71.00